Time;durP1;ratioP1;P1;durP2;ratioP2;P2;SDS_P1;SDS_P2;PMS_P1;PMS_P2;Temp;Humidity;BMP_temperature;BMP_pressure;BME280_temperature;BME280_humidity;BME280_pressure;Samples;Min_cycle;Max_cycle;Signal;HPM_P1;HPM_P2
2022/05/06 00:01:23;;;;;;;12.15;6.65;;;9.20;99.90;;;;;;5071261;28;20232;-62
2022/05/06 00:03:51;;;;;;;12.70;7.55;;;9.10;99.90;;;;;;5065843;28;20669;-61
2022/05/06 00:06:20;;;;;;;13.67;6.77;;;9.10;99.90;;;;;;5079965;28;20227;-61
2022/05/06 00:08:47;;;;;;;12.02;6.03;;;8.90;99.90;;;;;;5075822;28;20210;-61
2022/05/06 00:11:15;;;;;;;11.87;6.67;;;8.70;99.90;;;;;;5056953;28;20247;-60
2022/05/06 00:13:42;;;;;;;9.80;5.27;;;8.50;99.90;;;;;;5069061;28;20204;-61
2022/05/06 00:16:10;;;;;;;9.10;5.30;;;8.40;99.90;;;;;;5058082;27;20239;-60
2022/05/06 00:18:37;;;;;;;9.17;5.03;;;8.40;99.90;;;;;;5064756;27;20712;-65
2022/05/06 00:21:06;;;;;;;9.70;5.50;;;8.30;99.90;;;;;;5070507;28;20200;-61
2022/05/06 00:23:36;;;;;;;6.87;4.97;;;8.20;99.90;;;;;;5068935;28;20743;-61
2022/05/06 00:26:04;;;;;;;10.33;6.27;;;8.20;99.90;;;;;;5071369;27;20738;-61
2022/05/06 00:28:31;;;;;;;13.43;6.40;;;8.20;99.90;;;;;;5074786;28;20286;-61
2022/05/06 00:30:59;;;;;;;9.60;6.40;;;8.20;99.90;;;;;;5079295;28;20231;-60
2022/05/06 00:33:26;;;;;;;11.47;6.17;;;8.30;99.90;;;;;;5050157;27;20204;-61
2022/05/06 00:35:54;;;;;;;11.90;6.47;;;8.20;99.90;;;;;;5083361;28;20227;-60
2022/05/06 00:38:23;;;;;;;9.00;6.23;;;8.20;99.90;;;;;;5068943;27;21244;-61
2022/05/06 00:40:50;;;;;;;11.43;6.27;;;8.10;99.90;;;;;;5072925;28;20219;-60
2022/05/06 00:43:18;;;;;;;10.63;5.73;;;8.10;99.90;;;;;;5067937;28;20204;-60
2022/05/06 00:45:49;;;;;;;10.63;6.17;;;8.20;99.90;;;;;;5079406;28;20200;-60
2022/05/06 00:48:17;;;;;;;10.17;6.03;;;8.10;99.90;;;;;;5059294;28;20216;-60
2022/05/06 00:50:44;;;;;;;7.63;5.50;;;8.10;99.90;;;;;;5077180;28;20264;-60
2022/05/06 00:53:12;;;;;;;9.57;6.10;;;8.10;99.90;;;;;;5078700;28;20576;-60
2022/05/06 00:55:41;;;;;;;5.47;4.63;;;8.00;99.90;;;;;;5070950;28;20979;-60
2022/05/06 00:58:08;;;;;;;11.27;5.60;;;7.90;99.90;;;;;;5063618;28;20853;-60
2022/05/06 01:00:35;;;;;;;8.30;5.40;;;7.90;99.90;;;;;;5068067;28;20298;-61
2022/05/06 01:03:03;;;;;;;6.30;4.83;;;7.80;99.90;;;;;;5079189;28;20295;-61
2022/05/06 01:05:31;;;;;;;8.97;5.97;;;7.80;99.90;;;;;;5067452;28;20809;-61
2022/05/06 01:07:59;;;;;;;8.37;5.30;;;7.70;99.90;;;;;;5084063;28;20209;-60
2022/05/06 01:10:26;;;;;;;6.13;5.07;;;7.70;99.90;;;;;;5070331;28;20316;-60
2022/05/06 01:12:55;;;;;;;7.60;5.50;;;7.70;99.90;;;;;;5062622;28;20295;-60
2022/05/06 01:15:25;;;;;;;8.57;6.17;;;7.80;99.90;;;;;;5066299;28;20226;-60
2022/05/06 01:17:55;;;;;;;7.43;5.27;;;7.80;99.90;;;;;;5072953;27;20258;-60
2022/05/06 01:20:23;;;;;;;10.10;5.83;;;7.70;99.90;;;;;;5065273;28;20695;-60
2022/05/06 01:22:53;;;;;;;9.70;5.50;;;7.60;99.90;;;;;;5083622;27;20282;-59
2022/05/06 01:25:21;;;;;;;10.13;6.13;;;7.60;99.90;;;;;;5068749;27;20757;-60
2022/05/06 01:27:53;;;;;;;8.13;5.40;;;7.70;99.90;;;;;;5075485;27;20196;-59
2022/05/06 01:30:34;;;;;;;11.17;6.60;;;7.70;99.90;;;;;;5065974;27;20215;-59
2022/05/06 01:33:02;;;;;;;10.30;6.07;;;7.70;99.90;;;;;;5073733;27;20207;-59
2022/05/06 01:35:30;;;;;;;8.80;6.57;;;7.60;99.90;;;;;;5061228;27;20254;-60
2022/05/06 01:38:04;;;;;;;14.83;6.30;;;7.70;99.90;;;;;;5075699;28;20296;-60
2022/05/06 01:40:36;;;;;;;7.47;5.80;;;7.60;99.90;;;;;;5072520;28;20357;-60
2022/05/06 01:43:07;;;;;;;8.20;5.67;;;7.60;99.90;;;;;;5073567;27;21726;-59
2022/05/06 01:45:36;;;;;;;9.77;6.17;;;7.60;99.90;;;;;;5069684;28;20707;-60
2022/05/06 01:48:05;;;;;;;10.60;6.23;;;7.50;99.90;;;;;;5070827;27;21008;-60
2022/05/06 01:50:33;;;;;;;11.57;6.33;;;7.50;99.90;;;;;;5072323;27;20261;-59
2022/05/06 01:53:02;;;;;;;7.43;5.90;;;7.60;99.90;;;;;;5069805;27;20954;-60
2022/05/06 01:55:29;;;;;;;12.80;6.73;;;7.50;99.90;;;;;;5069277;27;20235;-60
2022/05/06 01:57:57;;;;;;;9.43;5.87;;;7.50;99.90;;;;;;5080883;27;20210;-60
2022/05/06 02:00:24;;;;;;;10.23;7.10;;;7.50;99.90;;;;;;5057231;28;20201;-60
2022/05/06 02:02:51;;;;;;;7.43;6.13;;;7.40;99.90;;;;;;5082778;28;20699;-59
2022/05/06 02:05:18;;;;;;;8.23;5.97;;;7.40;99.90;;;;;;5080075;27;20288;-59
2022/05/06 02:07:45;;;;;;;9.03;6.30;;;7.40;99.90;;;;;;5061549;28;20204;-60
2022/05/06 02:10:13;;;;;;;7.20;6.07;;;7.30;99.90;;;;;;5081670;27;20393;-59
2022/05/06 02:12:40;;;;;;;8.20;6.20;;;7.30;99.90;;;;;;5063240;27;20352;-59
2022/05/06 02:15:10;;;;;;;8.43;5.93;;;7.20;99.90;;;;;;5060413;27;20319;-60
2022/05/06 02:17:39;;;;;;;8.50;6.20;;;7.20;99.90;;;;;;5079383;27;20306;-59
2022/05/06 02:20:08;;;;;;;8.77;6.63;;;7.30;99.90;;;;;;5072903;27;20196;-60
2022/05/06 02:22:37;;;;;;;9.57;6.73;;;7.30;99.90;;;;;;5058768;27;20236;-60
2022/05/06 02:25:09;;;;;;;9.97;6.00;;;7.30;99.90;;;;;;5069114;27;20318;-59
2022/05/06 02:27:37;;;;;;;8.33;6.30;;;7.20;99.90;;;;;;5066665;27;20199;-59
2022/05/06 02:35:35;;;;;;;8.67;6.10;;;7.00;99.90;;;;;;5082022;27;20271;-59
2022/05/06 02:38:02;;;;;;;8.80;5.83;;;7.00;99.90;;;;;;5064984;27;20208;-60
2022/05/06 02:40:29;;;;;;;8.63;5.90;;;7.00;99.90;;;;;;5083151;27;20204;-60
2022/05/06 02:42:58;;;;;;;8.80;5.60;;;7.00;99.90;;;;;;5068827;28;20207;-59
2022/05/06 02:45:25;;;;;;;8.73;5.60;;;7.00;99.90;;;;;;5060059;27;24437;-60
2022/05/06 02:47:52;;;;;;;6.80;5.50;;;6.90;99.90;;;;;;5082776;27;20203;-60
2022/05/06 02:50:19;;;;;;;7.17;5.20;;;6.80;99.90;;;;;;5070000;27;20573;-60
2022/05/06 02:52:47;;;;;;;9.50;5.87;;;6.80;99.90;;;;;;5083267;27;20632;-60
2022/05/06 02:55:14;;;;;;;7.03;5.47;;;6.80;99.90;;;;;;5066253;27;20231;-60
2022/05/06 02:57:41;;;;;;;7.20;5.23;;;6.70;99.90;;;;;;5067300;27;20215;-60
2022/05/06 03:00:11;;;;;;;6.90;5.27;;;6.80;99.90;;;;;;5067668;27;20202;-60
2022/05/06 03:02:39;;;;;;;7.33;5.83;;;6.70;99.90;;;;;;5075200;28;20207;-60
2022/05/06 03:05:07;;;;;;;6.57;5.37;;;6.70;99.90;;;;;;5079273;27;21194;-59
2022/05/06 03:07:35;;;;;;;6.77;4.87;;;6.70;99.90;;;;;;5073732;27;20207;-60
2022/05/06 03:10:02;;;;;;;7.30;4.93;;;6.70;99.90;;;;;;5060589;27;21305;-59
2022/05/06 03:12:31;;;;;;;9.70;5.70;;;6.70;99.90;;;;;;5074501;27;20207;-59
2022/05/06 03:14:59;;;;;;;9.93;5.50;;;6.70;99.90;;;;;;5060631;27;21088;-60
2022/05/06 03:17:27;;;;;;;6.80;5.03;;;6.80;99.90;;;;;;5071076;27;20345;-60
2022/05/06 03:19:55;;;;;;;10.27;5.60;;;6.60;99.90;;;;;;5066871;27;20220;-60
2022/05/06 03:22:24;;;;;;;8.47;5.40;;;6.50;99.90;;;;;;5072832;27;20261;-60
2022/05/06 03:24:51;;;;;;;7.63;5.70;;;6.50;99.90;;;;;;5065496;28;20303;-60
2022/05/06 03:30:02;;;;;;;8.60;5.90;;;6.40;99.90;;;;;;5075609;27;20703;-60
2022/05/06 03:32:33;;;;;;;7.07;5.33;;;6.40;99.90;;;;;;5067183;27;20227;-59
2022/05/06 03:35:00;;;;;;;7.83;5.57;;;6.40;99.90;;;;;;5076059;27;20212;-60
2022/05/06 03:37:27;;;;;;;8.27;5.47;;;6.50;99.90;;;;;;5069681;28;20202;-60
2022/05/06 03:39:55;;;;;;;10.17;6.07;;;6.50;99.90;;;;;;5065913;27;20218;-60
2022/05/06 03:42:22;;;;;;;11.40;6.77;;;6.60;99.90;;;;;;5082786;27;20621;-60
2022/05/06 03:44:49;;;;;;;9.30;6.57;;;6.60;99.90;;;;;;5060362;27;20287;-61
2022/05/06 03:47:16;;;;;;;8.50;6.17;;;6.50;99.90;;;;;;5049856;27;20347;-60
2022/05/06 03:49:44;;;;;;;10.97;6.33;;;6.60;99.90;;;;;;5081919;27;20280;-59
2022/05/06 03:52:11;;;;;;;7.93;5.70;;;6.60;99.90;;;;;;5066445;27;20267;-60
2022/05/06 03:54:38;;;;;;;13.20;5.30;;;6.40;99.90;;;;;;5056146;27;20364;-60
2022/05/06 03:57:06;;;;;;;8.67;5.80;;;6.40;99.90;;;;;;5071442;27;20698;-60
2022/05/06 03:59:33;;;;;;;8.13;5.53;;;6.40;99.90;;;;;;5061501;28;20258;-60
2022/05/06 04:02:00;;;;;;;10.00;6.60;;;6.40;99.90;;;;;;5072733;27;20199;-60
2022/05/06 04:04:28;;;;;;;9.67;5.70;;;6.50;99.90;;;;;;5062545;27;20248;-60
2022/05/06 04:06:56;;;;;;;9.97;6.13;;;6.60;99.90;;;;;;5069006;28;20296;-61
2022/05/06 04:09:23;;;;;;;11.30;6.17;;;6.50;99.90;;;;;;5048104;28;20222;-60
2022/05/06 04:11:51;;;;;;;11.03;4.53;;;6.40;99.90;;;;;;5074592;28;20663;-60
2022/05/06 04:14:18;;;;;;;8.03;4.40;;;6.20;99.90;;;;;;5085820;27;20606;-60
2022/05/06 04:16:45;;;;;;;7.80;4.40;;;6.20;99.90;;;;;;5072603;28;20275;-60
2022/05/06 04:19:12;;;;;;;6.67;4.67;;;6.30;99.90;;;;;;5068313;28;20204;-59
2022/05/06 04:24:25;;;;;;;8.67;5.20;;;6.40;99.90;;;;;;5070721;27;20212;-59
2022/05/06 04:26:53;;;;;;;7.23;5.10;;;6.50;99.90;;;;;;5060443;28;20197;-59
2022/05/06 04:29:20;;;;;;;7.63;5.57;;;6.50;99.90;;;;;;5083485;27;20188;-59
2022/05/06 04:31:48;;;;;;;9.20;5.70;;;6.60;99.90;;;;;;5065520;27;20197;-59
2022/05/06 04:34:15;;;;;;;6.10;5.03;;;6.70;99.90;;;;;;5064027;27;20239;-59
2022/05/06 04:36:42;;;;;;;8.73;5.77;;;6.70;99.90;;;;;;5060697;27;20600;-59
2022/05/06 04:39:09;;;;;;;6.67;5.13;;;6.80;99.90;;;;;;5071593;28;20339;-59
2022/05/06 04:41:38;;;;;;;9.87;5.40;;;6.80;99.90;;;;;;5051317;28;20229;-60
2022/05/06 04:44:05;;;;;;;9.13;6.43;;;6.80;99.90;;;;;;5070614;28;20246;-60
2022/05/06 04:46:32;;;;;;;11.03;6.40;;;6.90;99.90;;;;;;5049877;28;20710;-59
2022/05/06 04:48:59;;;;;;;11.87;6.43;;;6.90;99.90;;;;;;5055666;28;20337;-59
2022/05/06 04:51:26;;;;;;;8.67;6.30;;;7.00;99.90;;;;;;5067991;28;20252;-60
2022/05/06 04:53:55;;;;;;;9.83;6.57;;;7.00;99.90;;;;;;5066001;28;20261;-59
2022/05/06 04:56:22;;;;;;;9.97;6.87;;;7.20;99.90;;;;;;5063487;28;20376;-59
2022/05/06 04:58:51;;;;;;;10.27;6.53;;;7.20;99.90;;;;;;5079175;28;20615;-59
2022/05/06 05:01:18;;;;;;;9.37;6.57;;;7.20;99.90;;;;;;5069401;28;20211;-59
2022/05/06 05:03:45;;;;;;;11.30;7.10;;;7.30;99.90;;;;;;5055984;28;20652;-60
2022/05/06 05:06:13;;;;;;;8.70;6.57;;;7.30;99.90;;;;;;5050351;28;20293;-59
2022/05/06 05:08:40;;;;;;;11.17;6.23;;;7.30;99.90;;;;;;5064555;28;20258;-60
2022/05/06 05:11:07;;;;;;;9.23;5.93;;;7.40;99.90;;;;;;5059352;28;20234;-60
2022/05/06 05:13:38;;;;;;;9.87;6.17;;;7.40;99.90;;;;;;5053768;28;20289;-60
2022/05/06 05:16:07;;;;;;;11.67;6.70;;;7.50;99.90;;;;;;5055997;28;20223;-59
2022/05/06 05:18:34;;;;;;;11.30;6.53;;;7.40;99.90;;;;;;5076452;28;20260;-60
2022/05/06 05:21:01;;;;;;;9.23;6.87;;;7.40;99.90;;;;;;5063977;28;20256;-59
2022/05/06 05:26:50;;;;;;;10.63;7.60;;;7.50;99.90;;;;;;5069424;28;20203;-59
2022/05/06 05:29:18;;;;;;;13.20;8.63;;;7.60;99.90;;;;;;5058266;28;20226;-60
2022/05/06 05:31:47;;;;;;;15.60;8.43;;;7.60;99.90;;;;;;5066146;28;20215;-59
2022/05/06 05:34:13;;;;;;;10.93;8.33;;;7.80;99.90;;;;;;5077452;28;20207;-60
2022/05/06 05:36:40;;;;;;;14.77;8.80;;;7.90;99.90;;;;;;5054968;28;20227;-59
2022/05/06 05:39:07;;;;;;;14.63;8.23;;;8.10;99.90;;;;;;5074340;28;20199;-60
2022/05/06 05:41:34;;;;;;;20.27;9.33;;;8.20;99.90;;;;;;5058301;28;20298;-60
2022/05/06 05:49:32;;;;;;;18.47;9.23;;;8.50;99.90;;;;;;5064679;28;20214;-60
2022/05/06 05:51:59;;;;;;;14.53;9.00;;;8.60;99.90;;;;;;5066288;28;20960;-59
2022/05/06 05:54:26;;;;;;;13.40;8.57;;;8.70;99.90;;;;;;5066636;28;20580;-60
2022/05/06 05:56:54;;;;;;;16.67;9.63;;;8.80;99.90;;;;;;5070148;28;20234;-59
2022/05/06 05:59:20;;;;;;;15.53;10.43;;;8.90;99.90;;;;;;5063892;28;20208;-60
2022/05/06 06:01:50;;;;;;;19.63;9.63;;;9.00;99.90;;;;;;5082578;27;20310;-60
2022/05/06 06:04:17;;;;;;;13.77;9.73;;;9.10;99.90;;;;;;5065085;28;20207;-60
2022/05/06 06:06:44;;;;;;;13.77;9.77;;;9.30;99.90;;;;;;5080420;28;20199;-60
2022/05/06 06:09:11;;;;;;;18.10;10.07;;;9.40;99.90;;;;;;5061098;28;20563;-60
2022/05/06 06:11:38;;;;;;;16.50;9.43;;;9.40;99.90;;;;;;5068192;27;20204;-60
2022/05/06 06:14:05;;;;;;;24.27;10.87;;;9.60;99.90;;;;;;5060320;27;20617;-60
2022/05/06 06:16:32;;;;;;;19.93;11.07;;;9.60;99.90;;;;;;5086536;28;20255;-59
2022/05/06 06:19:00;;;;;;;18.13;11.30;;;9.80;99.90;;;;;;5068652;27;20213;-60
2022/05/06 06:21:27;;;;;;;22.83;12.30;;;9.90;99.90;;;;;;5085480;28;20196;-60
2022/05/06 06:23:54;;;;;;;18.07;11.43;;;9.90;99.90;;;;;;5074662;27;20207;-60
2022/05/06 06:26:21;;;;;;;19.53;11.87;;;10.00;99.90;;;;;;5083239;27;20212;-60
2022/05/06 06:28:48;;;;;;;20.40;11.23;;;10.10;99.90;;;;;;5060864;28;20908;-58
2022/05/06 06:31:15;;;;;;;23.35;11.35;;;10.20;99.90;;;;;;5090398;28;20743;-60
2022/05/06 06:33:42;;;;;;;15.90;10.45;;;10.30;99.90;;;;;;5081029;28;20234;-60
2022/05/06 06:36:11;;;;;;;21.67;11.47;;;10.40;99.90;;;;;;5073173;27;20696;-60
2022/05/06 06:38:38;;;;;;;23.20;11.00;;;10.60;99.90;;;;;;5069740;28;20200;-61
2022/05/06 06:41:05;;;;;;;18.45;11.45;;;10.60;99.90;;;;;;5071620;28;20200;-60
2022/05/06 06:43:32;;;;;;;17.05;11.38;;;10.70;99.90;;;;;;5070582;27;20217;-60
2022/05/06 06:45:59;;;;;;;15.65;10.50;;;10.80;99.90;;;;;;5058999;28;23511;-60
2022/05/06 06:48:27;;;;;;;15.68;10.65;;;10.90;99.90;;;;;;5087078;28;20199;-60
2022/05/06 06:50:53;;;;;;;22.88;11.18;;;11.00;99.90;;;;;;5063681;28;20239;-60
2022/05/06 06:53:22;;;;;;;31.05;11.32;;;11.10;99.90;;;;;;5077319;28;20198;-60
2022/05/06 06:55:49;;;;;;;19.95;11.65;;;11.20;99.90;;;;;;5051280;28;20344;-60
2022/05/06 06:58:16;;;;;;;19.35;10.63;;;11.30;99.90;;;;;;5055563;27;32022;-60
2022/05/06 07:00:43;;;;;;;14.27;10.13;;;11.40;99.90;;;;;;5053800;27;20228;-61
2022/05/06 07:03:11;;;;;;;13.70;9.50;;;11.50;99.90;;;;;;5071954;27;20218;-62
2022/05/06 07:11:52;;;;;;;18.25;9.52;;;11.60;99.90;;;;;;5075989;28;20860;-62
2022/05/06 07:13:56;;;;;;;16.67;9.40;;;11.90;99.90;;;;;;5084979;28;20213;-62
2022/05/06 07:16:24;;;;;;;16.98;10.07;;;12.00;99.90;;;;;;5043157;28;20247;-62
2022/05/06 07:18:52;;;;;;;16.75;10.10;;;12.00;99.90;;;;;;5092474;27;20214;-61
2022/05/06 07:21:19;;;;;;;22.13;9.80;;;12.10;99.90;;;;;;5077785;28;20215;-61
2022/05/06 07:23:48;;;;;;;12.10;8.57;;;12.20;99.90;;;;;;5095636;28;20283;-61
2022/05/06 07:26:18;;;;;;;12.80;9.15;;;12.30;99.90;;;;;;5075369;27;20303;-61
2022/05/06 07:28:45;;;;;;;14.23;9.13;;;12.40;99.90;;;;;;5117987;27;20215;-61
2022/05/06 07:31:14;;;;;;;14.95;9.57;;;12.50;99.90;;;;;;5095583;27;20278;-61
2022/05/06 07:33:41;;;;;;;14.68;9.00;;;12.70;99.90;;;;;;5077205;28;20318;-60
2022/05/06 07:36:08;;;;;;;15.07;9.23;;;12.70;99.90;;;;;;5092586;28;20667;-61
2022/05/06 07:38:35;;;;;;;18.10;9.27;;;12.80;99.90;;;;;;5087358;27;20246;-62
2022/05/06 07:41:04;;;;;;;15.35;10.20;;;13.00;99.90;;;;;;5083364;28;20982;-62
2022/05/06 07:43:31;;;;;;;18.52;9.63;;;13.10;99.90;;;;;;5082092;28;20297;-61
2022/05/06 07:45:58;;;;;;;14.93;8.73;;;13.10;99.90;;;;;;5085777;28;20261;-61
2022/05/06 07:48:25;;;;;;;16.30;9.63;;;13.30;99.90;;;;;;5069052;28;20219;-62
2022/05/06 07:50:53;;;;;;;10.82;8.02;;;13.30;99.90;;;;;;5094226;28;20200;-62
2022/05/06 07:53:20;;;;;;;12.45;8.10;;;13.40;99.90;;;;;;5083554;28;21163;-62
2022/05/06 07:55:47;;;;;;;13.02;7.93;;;13.50;99.90;;;;;;5092511;28;20239;-61
2022/05/06 07:58:16;;;;;;;16.55;8.18;;;13.50;99.90;;;;;;5081086;28;20722;-62
2022/05/06 08:00:44;;;;;;;18.30;8.20;;;13.60;99.90;;;;;;5092797;28;20202;-62
2022/05/06 08:05:57;;;;;;;10.65;7.10;;;13.70;99.90;;;;;;5098677;28;20226;-60
2022/05/06 08:08:26;;;;;;;11.50;6.70;;;13.80;99.90;;;;;;5080456;27;20596;-60
2022/05/06 08:10:54;;;;;;;11.65;6.57;;;13.90;99.90;;;;;;5091043;28;20207;-60
2022/05/06 08:13:22;;;;;;;10.88;7.18;;;13.90;99.90;;;;;;5093353;28;21040;-59
2022/05/06 08:15:51;;;;;;;10.18;6.57;;;14.10;99.90;;;;;;5105577;28;20204;-60
2022/05/06 08:18:18;;;;;;;10.63;7.07;;;14.20;99.90;;;;;;5085195;27;20231;-60
2022/05/06 08:20:46;;;;;;;9.32;6.05;;;14.20;99.90;;;;;;5098273;28;20319;-59
2022/05/06 08:23:13;;;;;;;9.40;5.95;;;14.30;99.90;;;;;;5095780;28;20731;-60
2022/05/06 08:25:42;;;;;;;13.43;7.18;;;14.40;99.90;;;;;;5093986;28;20286;-60
2022/05/06 08:28:09;;;;;;;12.15;6.55;;;14.40;99.90;;;;;;5085298;28;20227;-62
2022/05/06 08:30:38;;;;;;;7.45;5.43;;;14.40;99.90;;;;;;5090507;27;20755;-61
2022/05/06 08:33:05;;;;;;;8.40;5.57;;;14.50;99.90;;;;;;5077042;28;20203;-61
2022/05/06 08:35:32;;;;;;;8.68;5.78;;;14.60;99.90;;;;;;5076011;28;20203;-61
2022/05/06 08:37:59;;;;;;;9.05;5.63;;;14.60;99.90;;;;;;5072653;28;20342;-60
2022/05/06 08:40:29;;;;;;;8.90;5.75;;;14.70;99.90;;;;;;5076671;28;20223;-60
2022/05/06 08:42:56;;;;;;;11.23;6.25;;;14.80;99.90;;;;;;5079999;28;20203;-61
2022/05/06 08:50:56;;;;;;;14.13;6.60;;;15.00;99.90;;;;;;5094519;28;20740;-60
2022/05/06 08:53:26;;;;;;;8.68;6.40;;;15.00;99.90;;;;;;5090711;28;20212;-60
2022/05/06 08:55:55;;;;;;;11.43;5.93;;;15.10;99.90;;;;;;5089139;28;20230;-62
2022/05/06 08:58:23;;;;;;;11.60;6.55;;;15.20;99.90;;;;;;5088653;28;20239;-62
2022/05/06 09:00:50;;;;;;;9.43;7.05;;;15.20;99.90;;;;;;5081341;28;20231;-62
2022/05/06 09:03:19;;;;;;;10.85;6.40;;;15.30;99.90;;;;;;5080605;28;20305;-61
2022/05/06 09:05:51;;;;;;;10.32;6.55;;;15.40;99.90;;;;;;5064338;28;20707;-62
2022/05/06 09:08:19;;;;;;;9.55;5.85;;;15.40;99.90;;;;;;5075597;28;20275;-62
2022/05/06 09:11:00;;;;;;;13.10;7.13;;;15.60;99.90;;;;;;5066147;28;20273;-62
2022/05/06 09:13:27;;;;;;;8.10;6.13;;;15.70;99.90;;;;;;5077533;28;20196;-62
2022/05/06 09:19:11;;;;;;;10.32;7.20;;;15.80;99.90;;;;;;5089507;28;20602;-62
2022/05/06 09:21:39;;;;;;;11.48;6.90;;;15.90;99.90;;;;;;5054773;28;21008;-61
2022/05/06 09:24:19;;;;;;;10.60;7.32;;;15.90;99.90;;;;;;5084397;28;20200;-62
2022/05/06 09:27:01;;;;;;;12.13;7.03;;;16.00;99.90;;;;;;5071021;28;20222;-62
2022/05/06 09:29:29;;;;;;;15.70;7.70;;;16.10;99.90;;;;;;5072090;28;20322;-61
2022/05/06 09:31:57;;;;;;;12.27;6.47;;;16.20;99.90;;;;;;5067775;28;20318;-62
2022/05/06 09:34:29;;;;;;;11.65;6.75;;;16.20;99.90;;;;;;5080282;28;20216;-61
2022/05/06 09:36:56;;;;;;;9.90;7.47;;;16.30;99.90;;;;;;5070787;27;20230;-62
2022/05/06 09:39:23;;;;;;;13.10;7.13;;;16.50;99.90;;;;;;5099338;28;20195;-62
2022/05/06 09:42:01;;;;;;;9.05;7.20;;;16.50;99.90;;;;;;5083201;27;20665;-62
2022/05/06 09:44:28;;;;;;;10.52;7.95;;;16.50;99.90;;;;;;5071044;27;20222;-62
2022/05/06 09:47:08;;;;;;;11.63;8.15;;;16.60;99.90;;;;;;5071689;27;20214;-62
2022/05/06 09:49:40;;;;;;;9.20;7.20;;;16.60;99.90;;;;;;5074281;27;20226;-62
2022/05/06 09:52:12;;;;;;;12.45;7.35;;;16.70;99.90;;;;;;5040388;27;22994;-62
2022/05/06 09:54:42;;;;;;;9.45;7.07;;;16.80;99.90;;;;;;5093292;27;20859;-62
2022/05/06 09:57:11;;;;;;;12.57;7.28;;;16.80;99.90;;;;;;5089882;28;20235;-62
2022/05/06 09:59:38;;;;;;;9.73;6.47;;;16.80;99.90;;;;;;5085104;27;20298;-60
2022/05/06 10:02:06;;;;;;;8.85;6.22;;;16.90;99.90;;;;;;5068670;28;20230;-60
2022/05/06 10:04:34;;;;;;;10.10;7.05;;;17.00;99.90;;;;;;5081503;28;20223;-65
2022/05/06 10:07:05;;;;;;;8.38;5.97;;;17.00;99.90;;;;;;5063039;28;20212;-60
2022/05/06 10:09:48;;;;;;;12.43;6.22;;;17.00;99.90;;;;;;5067141;28;20219;-62
2022/05/06 10:12:16;;;;;;;9.73;6.50;;;17.20;99.90;;;;;;5068000;27;20681;-60
2022/05/06 10:14:45;;;;;;;11.73;7.50;;;17.30;99.90;;;;;;5070533;28;21013;-60
2022/05/06 10:17:11;;;;;;;15.23;7.50;;;17.30;99.90;;;;;;5066734;28;20220;-60
2022/05/06 10:19:47;;;;;;;8.93;6.63;;;17.30;99.90;;;;;;5068542;27;20219;-60
2022/05/06 10:22:16;;;;;;;8.88;6.70;;;17.40;99.90;;;;;;5065404;28;20570;-62
2022/05/06 10:24:49;;;;;;;10.95;6.88;;;17.40;99.90;;;;;;5068678;28;20203;-62
2022/05/06 10:32:25;;;;;;;10.13;6.55;;;17.30;99.90;;;;;;5076252;27;20256;-63
2022/05/06 10:33:16;;;;;;;10.00;5.93;;;17.30;99.90;;;;;;5079542;27;20299;-62
2022/05/06 10:35:44;;;;;;;13.48;6.45;;;17.30;99.90;;;;;;5057766;27;20227;-62
2022/05/06 10:38:23;;;;;;;13.23;6.53;;;17.40;99.90;;;;;;5060371;27;20786;-60
2022/05/06 10:40:57;;;;;;;13.00;7.15;;;17.50;99.90;;;;;;5072348;28;20732;-60
2022/05/06 10:43:52;;;;;;;14.95;6.90;;;17.50;99.90;;;;;;5066778;27;20309;-60
2022/05/06 10:46:38;;;;;;;10.25;6.00;;;17.70;99.90;;;;;;5063794;27;20729;-60
2022/05/06 10:49:50;;;;;;;11.43;6.50;;;17.70;99.90;;;;;;5074679;28;20238;-59
2022/05/06 10:52:56;;;;;;;7.85;5.85;;;17.70;99.90;;;;;;5082870;28;20258;-60
2022/05/06 10:55:26;;;;;;;11.57;5.15;;;17.80;99.90;;;;;;5098387;28;20684;-62
2022/05/06 10:58:03;;;;;;;6.82;4.95;;;17.90;99.90;;;;;;5096300;27;20323;-62
2022/05/06 11:00:33;;;;;;;5.70;4.28;;;18.00;99.90;;;;;;5094933;27;20768;-62
2022/05/06 11:03:01;;;;;;;8.82;5.00;;;18.20;99.90;;;;;;5090468;28;20188;-62
2022/05/06 11:05:30;;;;;;;6.63;5.20;;;18.20;99.90;;;;;;5082032;28;20228;-61
2022/05/06 11:08:02;;;;;;;6.28;4.20;;;18.00;99.90;;;;;;5096223;28;20922;-62
2022/05/06 11:10:34;;;;;;;6.65;4.72;;;18.10;99.90;;;;;;5106185;28;20211;-62
2022/05/06 11:13:07;;;;;;;6.72;4.63;;;18.20;99.90;;;;;;5084484;27;20243;-62
2022/05/06 11:15:35;;;;;;;9.32;5.07;;;18.30;99.90;;;;;;5088188;27;20216;-61
2022/05/06 11:18:05;;;;;;;7.75;4.88;;;18.10;99.90;;;;;;5078860;28;20223;-61
2022/05/06 11:20:34;;;;;;;7.45;5.63;;;18.10;99.90;;;;;;5058970;27;20219;-61
2022/05/06 11:23:03;;;;;;;7.55;4.70;;;18.00;99.90;;;;;;5050165;28;20292;-61
2022/05/06 11:25:33;;;;;;;7.07;4.25;;;17.90;99.90;;;;;;5076080;28;20200;-61
2022/05/06 11:28:02;;;;;;;7.35;4.43;;;18.10;99.90;;;;;;5070693;28;20212;-61
2022/05/06 11:30:30;;;;;;;7.55;4.65;;;18.30;99.90;;;;;;5075009;28;20850;-61
2022/05/06 11:32:59;;;;;;;7.60;4.90;;;18.30;99.90;;;;;;5070036;28;20211;-61
2022/05/06 11:35:34;;;;;;;8.48;4.97;;;18.30;99.90;;;;;;5068484;28;20273;-61
2022/05/06 11:38:02;;;;;;;8.00;4.50;;;18.20;99.90;;;;;;5070022;28;20292;-60
2022/05/06 11:40:39;;;;;;;5.53;4.15;;;18.10;99.90;;;;;;5050452;28;20223;-61
2022/05/06 11:43:09;;;;;;;7.30;4.93;;;18.20;99.90;;;;;;5072384;27;20216;-61
2022/05/06 11:48:22;;;;;;;8.25;4.55;;;18.50;99.90;;;;;;5019540;28;20208;-61
2022/05/06 11:50:56;;;;;;;7.38;4.68;;;18.50;99.90;;;;;;5075963;27;20195;-61
2022/05/06 11:53:27;;;;;;;7.47;4.88;;;18.50;99.90;;;;;;5073598;28;21123;-61
2022/05/06 11:55:56;;;;;;;9.57;5.10;;;18.50;99.90;;;;;;5064457;27;20730;-61
2022/05/06 11:58:25;;;;;;;9.45;4.28;;;18.40;99.90;;;;;;5086730;28;20231;-61
2022/05/06 12:00:54;;;;;;;7.35;4.60;;;18.40;99.90;;;;;;5068668;27;20364;-61
2022/05/06 12:03:24;;;;;;;8.70;4.68;;;18.70;99.90;;;;;;5077474;27;20220;-63
2022/05/06 12:06:02;;;;;;;9.13;4.80;;;18.70;99.90;;;;;;5060607;28;20736;-61
2022/05/06 12:08:33;;;;;;;5.70;4.10;;;18.80;99.90;;;;;;5085239;27;20207;-62
2022/05/06 12:11:06;;;;;;;10.48;4.22;;;18.80;99.90;;;;;;5077232;28;20212;-61
2022/05/06 12:13:36;;;;;;;5.10;4.47;;;18.70;99.90;;;;;;5078355;27;20228;-61
2022/05/06 12:16:07;;;;;;;6.65;4.53;;;18.60;99.90;;;;;;5066376;28;20223;-61
2022/05/06 12:18:34;;;;;;;5.40;4.00;;;18.80;99.90;;;;;;5088911;28;20242;-61
2022/05/06 12:21:16;;;;;;;5.65;3.97;;;18.80;99.90;;;;;;5053825;28;20211;-61
2022/05/06 12:23:51;;;;;;;6.78;3.75;;;19.00;99.90;;;;;;5089218;28;20209;-60
2022/05/06 12:26:29;;;;;;;6.70;3.75;;;19.30;99.90;;;;;;5090024;28;21269;-61
2022/05/06 12:28:55;;;;;;;8.95;3.58;;;19.20;99.90;;;;;;5095877;28;20245;-60
2022/05/06 12:31:28;;;;;;;4.60;3.58;;;19.20;99.90;;;;;;5088326;28;20220;-60
2022/05/06 12:34:02;;;;;;;4.55;3.30;;;19.10;99.90;;;;;;5080122;28;20223;-60
2022/05/06 12:36:29;;;;;;;5.55;3.97;;;19.20;99.90;;;;;;5061569;28;20204;-61
2022/05/06 12:38:56;;;;;;;10.35;3.40;;;19.10;99.90;;;;;;5063896;27;20262;-61
2022/05/06 12:41:25;;;;;;;7.05;4.10;;;19.10;99.90;;;;;;5055136;28;20759;-61
2022/05/06 12:43:57;;;;;;;4.85;3.00;;;19.10;99.90;;;;;;5074222;28;20202;-61
2022/05/06 12:46:29;;;;;;;7.13;2.80;;;19.20;99.90;;;;;;5072134;28;20204;-60
2022/05/06 12:51:41;;;;;;;6.03;3.42;;;19.30;99.90;;;;;;5033116;28;20253;-61
2022/05/06 12:54:10;;;;;;;5.55;3.60;;;19.40;99.90;;;;;;5061315;28;20767;-60
2022/05/06 12:56:38;;;;;;;4.38;3.33;;;19.30;99.90;;;;;;5044711;28;20203;-60
2022/05/06 12:59:07;;;;;;;6.53;3.55;;;19.30;99.90;;;;;;5070485;28;20235;-61
2022/05/06 13:01:34;;;;;;;5.20;3.05;;;19.10;99.90;;;;;;5072248;28;20209;-60
2022/05/06 13:04:01;;;;;;;3.60;2.90;;;19.00;99.90;;;;;;5062670;28;20675;-61
2022/05/06 13:06:31;;;;;;;5.78;3.47;;;19.20;99.90;;;;;;5066550;28;20854;-61
2022/05/06 13:08:58;;;;;;;5.75;3.20;;;19.20;99.90;;;;;;5072606;28;20204;-61
2022/05/06 13:11:25;;;;;;;5.25;3.00;;;19.40;99.90;;;;;;5045765;27;20211;-61
2022/05/06 13:13:52;;;;;;;4.30;2.90;;;19.40;99.90;;;;;;5069003;27;20242;-63
2022/05/06 13:16:21;;;;;;;3.67;2.67;;;19.40;99.90;;;;;;5073541;27;20215;-62
2022/05/06 13:18:50;;;;;;;4.22;2.28;;;19.60;99.90;;;;;;5078245;27;20235;-62
2022/05/06 13:21:17;;;;;;;2.55;2.28;;;19.50;99.90;;;;;;5039828;28;20207;-62
2022/05/06 13:23:43;;;;;;;2.53;2.22;;;19.60;99.90;;;;;;5070061;28;20219;-62
2022/05/06 13:26:10;;;;;;;5.13;2.20;;;19.70;99.90;;;;;;5049522;27;20972;-62
2022/05/06 13:28:37;;;;;;;5.05;2.17;;;19.60;99.90;;;;;;5047232;27;20223;-62
2022/05/06 13:31:04;;;;;;;3.55;2.05;;;19.60;99.90;;;;;;5072876;28;20418;-62
2022/05/06 13:33:35;;;;;;;2.67;2.00;;;19.50;99.90;;;;;;5070358;28;20567;-62
2022/05/06 13:36:03;;;;;;;4.82;3.13;;;19.60;99.90;;;;;;5063194;27;20602;-62
2022/05/06 13:38:30;;;;;;;9.20;3.00;;;19.60;99.90;;;;;;5045072;28;20731;-62
2022/05/06 13:40:56;;;;;;;3.88;3.00;;;19.50;99.90;;;;;;5071598;28;20212;-63